N717SM BIKF-EGKB
Flight info
| Callsign | N717SM |
|---|---|
| Flight time | N/A |
| Altitude | 41000 |
| Route | OSKUM3A OSKUM DCT RATSU/N0495F450 DCT BARKU DCT BILLY DCT STN DCT GOW/N0481F250 L612 ELBUS UL612 LISTO |
| Aircraft | C750/M-SBDE3FGHRWXY/S |
Departure
| Time | N/A |
|---|---|
| Airport | Keflavik International Airport (BIKF) |
Arrival
| Time | 2026-04-23 02:56 |
|---|---|
| Airport | London Biggin Hill Airport (EGKB) |
| Time | Latitude | Longitude | Altitude | Speed | Heading |
|---|---|---|---|---|---|
| 2026-04-23 02:25 | 53.59018 | -2.53788 | 45491 ft | 496 kts | 155° |
| 2026-04-23 02:25 | 53.52737 | -2.48978 | 45492 ft | 496 kts | 155° |
| 2026-04-23 02:26 | 53.46443 | -2.44173 | 45488 ft | 497 kts | 155° |
| 2026-04-23 02:26 | 53.40142 | -2.39380 | 45483 ft | 497 kts | 155° |
| 2026-04-23 02:27 | 53.33835 | -2.34596 | 45490 ft | 498 kts | 155° |
| 2026-04-23 02:27 | 53.27526 | -2.29828 | 45490 ft | 498 kts | 155° |
| 2026-04-23 02:28 | 53.21216 | -2.25073 | 45487 ft | 497 kts | 155° |
| 2026-04-23 02:28 | 53.14928 | -2.20269 | 45467 ft | 497 kts | 152° |
| 2026-04-23 02:29 | 53.09249 | -2.13795 | 45482 ft | 495 kts | 141° |
| 2026-04-23 02:29 | 53.03735 | -2.06903 | 45486 ft | 496 kts | 144° |
| 2026-04-23 02:30 | 52.98117 | -2.00234 | 45478 ft | 496 kts | 142° |
| 2026-04-23 02:30 | 52.92579 | -1.93427 | 45477 ft | 496 kts | 143° |
| 2026-04-23 02:31 | 52.86976 | -1.86749 | 45465 ft | 496 kts | 143° |
| 2026-04-23 02:31 | 52.81401 | -1.80001 | 45475 ft | 497 kts | 143° |
| 2026-04-23 02:32 | 52.75961 | -1.73517 | 45422 ft | 497 kts | 143° |
| 2026-04-23 02:32 | 52.69945 | -1.67901 | 45397 ft | 497 kts | 152° |
| 2026-04-23 02:33 | 52.63815 | -1.62604 | 45382 ft | 498 kts | 151° |
| 2026-04-23 02:33 | 52.57669 | -1.57338 | 45372 ft | 498 kts | 152° |
| 2026-04-23 02:34 | 52.51647 | -1.52201 | 45355 ft | 472 kts | 151° |
| 2026-04-23 02:34 | 52.48794 | -1.49754 | 44986 ft | 464 kts | 152° |
| 2026-04-23 02:34 | 52.45921 | -1.47309 | 44374 ft | 464 kts | 152° |
| 2026-04-23 02:34 | 52.43057 | -1.44882 | 43767 ft | 463 kts | 152° |
| 2026-04-23 02:35 | 52.40198 | -1.42457 | 43176 ft | 462 kts | 152° |
| 2026-04-23 02:35 | 52.37346 | -1.40034 | 42569 ft | 462 kts | 152° |
| 2026-04-23 02:35 | 52.34486 | -1.37612 | 41965 ft | 463 kts | 152° |
| 2026-04-23 02:35 | 52.31624 | -1.35183 | 41357 ft | 465 kts | 152° |
| 2026-04-23 02:36 | 52.28993 | -1.32121 | 40679 ft | 466 kts | 135° |
| 2026-04-23 02:36 | 52.26836 | -1.28177 | 40151 ft | 466 kts | 129° |
| 2026-04-23 02:36 | 52.24769 | -1.24080 | 39528 ft | 469 kts | 128° |
| 2026-04-23 02:36 | 52.22708 | -1.19947 | 38861 ft | 471 kts | 129° |
| 2026-04-23 02:37 | 52.20595 | -1.15862 | 38224 ft | 470 kts | 129° |
| 2026-04-23 02:37 | 52.18471 | -1.11820 | 37624 ft | 471 kts | 129° |
| 2026-04-23 02:37 | 52.16357 | -1.07724 | 36996 ft | 472 kts | 128° |
| 2026-04-23 02:37 | 52.14443 | -1.03400 | 36288 ft | 471 kts | 116° |
| 2026-04-23 02:38 | 52.13320 | -0.98440 | 35712 ft | 465 kts | 100° |
| 2026-04-23 02:38 | 52.13029 | -0.93242 | 35127 ft | 460 kts | 87° |
| 2026-04-23 02:38 | 52.13053 | -0.88039 | 34534 ft | 460 kts | 85° |
| 2026-04-23 02:38 | 52.13121 | -0.82845 | 33880 ft | 459 kts | 85° |
| 2026-04-23 02:39 | 52.13158 | -0.77632 | 33263 ft | 461 kts | 86° |
| 2026-04-23 02:39 | 52.13161 | -0.72409 | 32648 ft | 463 kts | 86° |
| 2026-04-23 02:39 | 52.13172 | -0.67159 | 32034 ft | 465 kts | 86° |
| 2026-04-23 02:39 | 52.13203 | -0.61891 | 31414 ft | 467 kts | 85° |
| 2026-04-23 02:40 | 52.13229 | -0.56606 | 30803 ft | 469 kts | 85° |
| 2026-04-23 02:40 | 52.13237 | -0.51299 | 30138 ft | 465 kts | 86° |
| 2026-04-23 02:40 | 52.13242 | -0.46075 | 29530 ft | 459 kts | 86° |
| 2026-04-23 02:40 | 52.13255 | -0.40960 | 28931 ft | 454 kts | 85° |
| 2026-04-23 02:41 | 52.13268 | -0.35796 | 28336 ft | 450 kts | 86° |
| 2026-04-23 02:41 | 52.13273 | -0.30736 | 27742 ft | 445 kts | 86° |
| 2026-04-23 02:41 | 52.13273 | -0.25720 | 27158 ft | 441 kts | 86° |
| 2026-04-23 02:41 | 52.13274 | -0.20752 | 26580 ft | 437 kts | 86° |
| 2026-04-23 02:42 | 52.13275 | -0.17488 | 26201 ft | 434 kts | 86° |
| 2026-04-23 02:42 | 52.13273 | -0.11990 | 25562 ft | 430 kts | 87° |
| 2026-04-23 02:42 | 52.13268 | -0.07149 | 24997 ft | 426 kts | 87° |
| 2026-04-23 02:42 | 52.13261 | -0.02353 | 24437 ft | 422 kts | 88° |
| 2026-04-23 02:43 | 52.13253 | 0.02396 | 23856 ft | 418 kts | 88° |
| 2026-04-23 02:43 | 52.13244 | 0.07028 | 23293 ft | 412 kts | 88° |
| 2026-04-23 02:43 | 52.13231 | 0.11671 | 22747 ft | 408 kts | 89° |
| 2026-04-23 02:43 | 52.13109 | 0.16284 | 22399 ft | 390 kts | 95° |
| 2026-04-23 02:44 | 52.12757 | 0.20412 | 22425 ft | 357 kts | 96° |
| 2026-04-23 02:44 | 52.12413 | 0.24248 | 22408 ft | 330 kts | 99° |
| 2026-04-23 02:44 | 52.11705 | 0.27773 | 22165 ft | 339 kts | 111° |
| 2026-04-23 02:44 | 52.10623 | 0.31412 | 21803 ft | 375 kts | 116° |
| 2026-04-23 02:45 | 52.08904 | 0.34833 | 21289 ft | 405 kts | 138° |
| 2026-04-23 02:45 | 52.06444 | 0.36929 | 20859 ft | 402 kts | 162° |
| 2026-04-23 02:45 | 52.03667 | 0.37347 | 20487 ft | 402 kts | 181° |
| 2026-04-23 02:45 | 52.00893 | 0.36798 | 20222 ft | 402 kts | 188° |
| 2026-04-23 02:46 | 51.98166 | 0.35816 | 19870 ft | 397 kts | 193° |
| 2026-04-23 02:46 | 51.95533 | 0.34636 | 18675 ft | 394 kts | 195° |
| 2026-04-23 02:46 | 51.92922 | 0.33356 | 18011 ft | 388 kts | 195° |
| 2026-04-23 02:46 | 51.90332 | 0.32052 | 17139 ft | 388 kts | 196° |
| 2026-04-23 02:47 | 51.87773 | 0.30750 | 16312 ft | 382 kts | 196° |
| 2026-04-23 02:47 | 51.85268 | 0.29467 | 15511 ft | 374 kts | 196° |
| 2026-04-23 02:47 | 51.82812 | 0.28201 | 14717 ft | 367 kts | 196° |
| 2026-04-23 02:47 | 51.80400 | 0.26949 | 13908 ft | 361 kts | 196° |
| 2026-04-23 02:48 | 51.78033 | 0.25714 | 13148 ft | 355 kts | 196° |
| 2026-04-23 02:48 | 51.75697 | 0.24493 | 12397 ft | 351 kts | 196° |
| 2026-04-23 02:48 | 51.73433 | 0.23304 | 11667 ft | 337 kts | 196° |
| 2026-04-23 02:48 | 51.71240 | 0.22148 | 10961 ft | 326 kts | 196° |
| 2026-04-23 02:49 | 51.69096 | 0.21204 | 10246 ft | 314 kts | 187° |
| 2026-04-23 02:49 | 51.66963 | 0.20927 | 9601 ft | 302 kts | 181° |
| 2026-04-23 02:49 | 51.64902 | 0.20709 | 8980 ft | 293 kts | 184° |
| 2026-04-23 02:49 | 51.62921 | 0.20106 | 8367 ft | 287 kts | 192° |
| 2026-04-23 02:50 | 51.61069 | 0.19144 | 7790 ft | 260 kts | 196° |
| 2026-04-23 02:50 | 51.59508 | 0.18339 | 7265 ft | 226 kts | 193° |
| 2026-04-23 02:50 | 51.58054 | 0.17715 | 6787 ft | 197 kts | 191° |
| 2026-04-23 02:50 | 51.56697 | 0.17147 | 6362 ft | 205 kts | 191° |
| 2026-04-23 02:51 | 51.55300 | 0.16532 | 5923 ft | 210 kts | 192° |
| 2026-04-23 02:51 | 51.53876 | 0.15896 | 5477 ft | 215 kts | 191° |
| 2026-04-23 02:51 | 51.52422 | 0.15250 | 5016 ft | 219 kts | 191° |
| 2026-04-23 02:51 | 51.50942 | 0.14596 | 4541 ft | 222 kts | 191° |
| 2026-04-23 02:52 | 51.49466 | 0.13943 | 4067 ft | 224 kts | 191° |
| 2026-04-23 02:52 | 51.47959 | 0.13276 | 3590 ft | 225 kts | 191° |
| 2026-04-23 02:52 | 51.46445 | 0.12607 | 3094 ft | 227 kts | 191° |
| 2026-04-23 02:52 | 51.44922 | 0.11936 | 2604 ft | 227 kts | 190° |
| 2026-04-23 02:53 | 51.43471 | 0.11210 | 2176 ft | 197 kts | 197° |
| 2026-04-23 02:53 | 51.42328 | 0.10341 | 2212 ft | 182 kts | 199° |
| 2026-04-23 02:53 | 51.41171 | 0.09461 | 2214 ft | 183 kts | 199° |
| 2026-04-23 02:53 | 51.40009 | 0.08569 | 1992 ft | 184 kts | 200° |
| 2026-04-23 02:54 | 51.39390 | 0.08085 | 1854 ft | 165 kts | 200° |
| 2026-04-23 02:54 | 51.38446 | 0.07350 | 1631 ft | 139 kts | 198° |
| 2026-04-23 02:54 | 51.37874 | 0.06921 | 1498 ft | 131 kts | 199° |
| 2026-04-23 02:54 | 51.36851 | 0.06132 | 1269 ft | 126 kts | 202° |
| 2026-04-23 02:55 | 51.36049 | 0.05519 | 1093 ft | 129 kts | 203° |
| 2026-04-23 02:55 | 51.35236 | 0.04886 | 899 ft | 130 kts | 205° |
| 2026-04-23 02:55 | 51.34436 | 0.04271 | 700 ft | 130 kts | 205° |
| 2026-04-23 02:55 | 51.33628 | 0.03645 | 547 ft | 126 kts | 205° |
| 2026-04-23 02:56 | 51.32961 | 0.03136 | 577 ft | 77 kts | 204° |
| 2026-04-23 02:56 | 51.32553 | 0.02824 | 585 ft | 58 kts | 206° |
| 2026-04-23 02:56 | 51.32381 | 0.02716 | 590 ft | 8 kts | 157° |
| 2026-04-23 02:56 | 51.32355 | 0.02772 | 591 ft | 5 kts | 111° |
| 2026-04-23 02:57 | 51.32349 | 0.02798 | 592 ft | 2 kts | 109° |
| 2026-04-23 02:57 | 51.32338 | 0.02868 | 595 ft | 9 kts | 104° |
| 2026-04-23 02:57 | 51.32324 | 0.02946 | 598 ft | 9 kts | 106° |
| 2026-04-23 02:57 | 51.32314 | 0.03006 | 600 ft | 7 kts | 105° |
| 2026-04-23 02:58 | 51.32307 | 0.03045 | 602 ft | 3 kts | 105° |
| 2026-04-23 02:58 | 51.32291 | 0.03138 | 604 ft | 10 kts | 106° |
| 2026-04-23 02:58 | 51.32273 | 0.03240 | 603 ft | 10 kts | 104° |
| 2026-04-23 02:58 | 51.32239 | 0.03294 | 603 ft | 7 kts | 165° |
| 2026-04-23 02:59 | 51.32203 | 0.03386 | 600 ft | 13 kts | 124° |
| 2026-04-23 02:59 | 51.32144 | 0.03490 | 611 ft | 10 kts | 131° |
| 2026-04-23 02:59 | 51.32121 | 0.03545 | 610 ft | 5 kts | 107° |
| 2026-04-23 02:59 | 51.32110 | 0.03609 | 610 ft | 4 kts | 106° |
| 2026-04-23 03:00 | 51.32105 | 0.03635 | 611 ft | 1 kts | 107° |
| 2026-04-23 03:00 | 51.32091 | 0.03698 | 613 ft | 7 kts | 121° |
| 2026-04-23 03:00 | 51.32051 | 0.03717 | 618 ft | 5 kts | 183° |
| 2026-04-23 03:00 | 51.32040 | 0.03714 | 626 ft | 0 kts | 193° |